Piedmont, Wyoming
Current Conditions -  °F | °C
As of 5:55 PM on Friday 24 Oct 2014 (Local Time) from KFBR Reporting Station
Clear Clear  
Wind Chill: 68°   Ceiling: Unl
Heat Index: 68°   Visibility: NA
Dew Point: 23°   Wind: 14mph
Humidity: 19%   Direction: 270°W
Pressure: 30.27"   Gusts: 17mph
Location:  41.2998°N, 110.328°W
Report Text: KFBR 242355Z AUTO 27012G15KT CLR 20/M05 A3027 RMK AO2 T01991048 10218 20199 PWINO
Loading
Personal Weather Stations






























Interactive Weather Map
Tropical Storm Tracking
New forecast layout! Learn more

10-Day Weather Forecast

Advertisements
Track Severe Weather on mobile